createdAt,value
2022-08-22T00:01:03.602Z,19.64
2022-08-22T00:02:45.363Z,21.64
2022-08-22T00:03:07.040Z,19.72
2022-08-22T00:04:01.574Z,19.69
2022-08-22T00:06:54.427Z,19.70
2022-08-22T00:09:29.974Z,19.70
2022-08-22T00:12:08.813Z,19.70
2022-08-22T00:14:53.867Z,19.70
2022-08-22T00:17:34.227Z,19.71
2022-08-22T00:20:28.288Z,19.71
2022-08-22T00:23:12.662Z,19.68
2022-08-22T00:25:59.472Z,19.67
2022-08-22T00:28:53.759Z,19.69
2022-08-22T00:31:22.137Z,19.65
2022-08-22T00:33:53.280Z,19.67
2022-08-22T00:36:32.412Z,19.70
2022-08-22T00:39:24.958Z,19.69
2022-08-22T00:42:07.160Z,19.67
2022-08-22T00:44:44.345Z,19.68
2022-08-22T00:47:38.785Z,19.66
2022-08-22T00:50:36.093Z,19.69
2022-08-22T00:53:35.088Z,19.74
2022-08-22T00:56:32.549Z,19.73
2022-08-22T00:59:25.606Z,19.73
2022-08-22T01:02:32.204Z,19.70
2022-08-22T01:05:22.067Z,19.70
2022-08-22T01:08:15.634Z,19.74
2022-08-22T01:11:01.829Z,19.75
2022-08-22T01:14:04.309Z,19.75
2022-08-22T01:17:05.045Z,19.73
2022-08-22T01:19:49.294Z,19.69
2022-08-22T01:22:41.536Z,19.66
2022-08-22T01:25:22.387Z,19.66
2022-08-22T01:28:02.867Z,19.60
2022-08-22T01:30:49.473Z,19.60
2022-08-22T01:33:38.949Z,19.56
2022-08-22T01:36:28.830Z,19.54
2022-08-22T01:39:02.740Z,19.57
2022-08-22T01:41:52.416Z,19.57
2022-08-22T01:44:26.531Z,19.54
2022-08-22T01:47:14.876Z,19.49
2022-08-22T01:50:13.464Z,19.46
2022-08-22T01:52:51.095Z,19.50
2022-08-22T01:55:24.868Z,19.47
2022-08-22T01:58:19.178Z,19.41
2022-08-22T02:01:29.002Z,19.42
2022-08-22T02:04:11.410Z,19.43
2022-08-22T02:06:46.136Z,19.48
2022-08-22T02:09:38.583Z,19.54
2022-08-22T02:12:42.296Z,19.55
2022-08-22T02:15:17.629Z,19.56
2022-08-22T02:17:54.814Z,19.54
2022-08-22T02:20:35.788Z,19.55
2022-08-22T02:23:23.726Z,19.61
2022-08-22T02:26:01.426Z,19.65
2022-08-22T02:28:56.628Z,19.65
2022-08-22T02:31:39.453Z,19.66
2022-08-22T02:34:34.284Z,19.63
2022-08-22T02:37:13.787Z,19.60
2022-08-22T02:39:46.230Z,19.58
2022-08-22T02:42:49.495Z,19.56
2022-08-22T02:45:59.819Z,19.57
2022-08-22T02:48:44.019Z,19.55
2022-08-22T02:51:19.821Z,19.54
2022-08-22T02:54:39.095Z,19.57
2022-08-22T02:57:14.484Z,19.56
2022-08-22T03:00:31.448Z,19.59
2022-08-22T03:03:26.970Z,19.60
2022-08-22T03:06:03.382Z,19.63
2022-08-22T03:08:53.219Z,19.67
2022-08-22T03:11:35.933Z,19.67
2022-08-22T03:14:12.141Z,19.68
2022-08-22T03:16:49.997Z,19.69
2022-08-22T03:19:23.394Z,19.69
2022-08-22T03:22:16.348Z,19.73
2022-08-22T03:24:56.042Z,19.77
2022-08-22T03:27:32.567Z,19.77
2022-08-22T03:30:16.929Z,19.77
2022-08-22T03:32:59.738Z,19.74
2022-08-22T03:35:28.060Z,19.69
2022-08-22T03:38:20.759Z,19.67
2022-08-22T03:41:19.377Z,19.70
2022-08-22T03:44:02.676Z,19.68
2022-08-22T03:46:52.867Z,19.65
2022-08-22T03:49:46.230Z,19.65
2022-08-22T03:53:02.278Z,19.68
2022-08-22T03:55:49.036Z,19.73
2022-08-22T03:58:50.081Z,19.72
2022-08-22T04:01:39.366Z,19.72
2022-08-22T04:04:19.201Z,19.72
2022-08-22T04:07:31.457Z,19.72
2022-08-22T04:10:19.238Z,19.80
2022-08-22T04:12:56.423Z,19.79
2022-08-22T04:15:36.783Z,19.79
2022-08-22T04:18:42.075Z,19.78
2022-08-22T04:21:48.142Z,19.72
2022-08-22T04:24:42.374Z,19.70
2022-08-22T04:27:35.328Z,19.57
2022-08-22T04:30:03.505Z,19.40
2022-08-22T04:32:36.797Z,19.35
2022-08-22T04:35:30.044Z,19.35
2022-08-22T04:38:20.794Z,19.31
2022-08-22T04:40:55.828Z,19.24
2022-08-22T04:43:33.606Z,19.22
2022-08-22T04:46:36.707Z,19.20
2022-08-22T04:49:13.686Z,19.15
2022-08-22T04:51:50.342Z,19.06
2022-08-22T04:54:42.114Z,19.12
2022-08-22T04:57:32.361Z,19.20
2022-08-22T05:00:04.170Z,19.31
2022-08-22T05:02:37.924Z,19.35
2022-08-22T05:05:14.598Z,19.32
2022-08-22T05:07:48.609Z,19.26
2022-08-22T05:10:21.635Z,19.25
2022-08-22T05:13:00.830Z,19.25
2022-08-22T05:15:37.196Z,19.21
2022-08-22T05:18:10.126Z,19.24
2022-08-22T05:20:41.226Z,19.26
2022-08-22T05:23:19.432Z,19.26
2022-08-22T05:25:51.600Z,19.28
2022-08-22T05:28:37.284Z,19.32
2022-08-22T05:31:13.036Z,19.40
2022-08-22T05:33:52.064Z,19.49
2022-08-22T05:36:27.610Z,19.57
2022-08-22T05:39:12.066Z,19.66
2022-08-22T05:41:41.910Z,19.71
2022-08-22T05:44:21.521Z,19.72
2022-08-22T05:47:04.176Z,19.74
2022-08-22T05:49:45.313Z,19.76
2022-08-22T05:52:22.584Z,19.81
2022-08-22T05:55:00.847Z,19.70
2022-08-22T05:57:47.518Z,19.64
2022-08-22T06:00:22.352Z,19.61
2022-08-22T06:03:33.632Z,19.60
2022-08-22T06:06:19.933Z,19.53
2022-08-22T06:09:06.981Z,19.52
2022-08-22T06:11:51.792Z,19.54
2022-08-22T06:14:40.876Z,19.65
2022-08-22T06:17:15.648Z,19.78
2022-08-22T06:19:48.080Z,19.85
2022-08-22T06:22:27.607Z,19.87
2022-08-22T06:25:13.035Z,19.95
2022-08-22T06:27:43.423Z,20.01
2022-08-22T06:30:15.571Z,20.07
2022-08-22T06:33:00.210Z,20.15
2022-08-22T06:35:55.869Z,20.20
2022-08-22T06:38:29.777Z,20.17
2022-08-22T06:41:07.064Z,20.15
2022-08-22T06:43:42.253Z,20.21
2022-08-22T06:46:12.629Z,20.32
2022-08-22T06:48:41.550Z,20.33
2022-08-22T06:51:12.663Z,20.34
2022-08-22T06:53:51.114Z,20.36
2022-08-22T06:56:25.906Z,20.35
2022-08-22T06:59:00.840Z,20.36
2022-08-22T07:01:39.476Z,20.41
2022-08-22T07:04:10.704Z,20.40
2022-08-22T07:06:47.581Z,20.40
2022-08-22T07:09:38.236Z,20.47
2022-08-22T07:12:32.059Z,20.49
2022-08-22T07:15:19.385Z,20.52
2022-08-22T07:17:57.998Z,20.57
2022-08-22T07:20:50.239Z,20.59
2022-08-22T07:23:31.928Z,20.67
2022-08-22T07:26:08.810Z,20.69
2022-08-22T07:28:51.589Z,20.74
2022-08-22T07:31:35.363Z,20.82
2022-08-22T07:34:23.301Z,20.77
2022-08-22T07:37:12.672Z,20.76
2022-08-22T07:39:56.385Z,20.75
2022-08-22T07:42:49.373Z,20.79
2022-08-22T07:45:56.145Z,20.82
2022-08-22T07:48:30.482Z,20.87
2022-08-22T07:51:05.934Z,20.87
2022-08-22T07:53:50.385Z,20.88
2022-08-22T07:56:23.553Z,20.89
2022-08-22T07:59:00.125Z,20.88
2022-08-22T08:01:29.893Z,20.92
2022-08-22T08:04:09.067Z,20.94
2022-08-22T08:06:37.859Z,20.90
2022-08-22T08:09:09.719Z,20.89
2022-08-22T08:11:42.636Z,20.88
2022-08-22T08:14:14.871Z,20.90
2022-08-22T08:16:51.237Z,20.94
2022-08-22T08:19:20.351Z,20.97
2022-08-22T08:21:53.832Z,20.99
2022-08-22T08:24:31.466Z,21.00
2022-08-22T08:27:32.574Z,21.02
2022-08-22T08:30:21.538Z,21.06
2022-08-22T08:32:59.619Z,21.13
2022-08-22T08:36:02.609Z,21.16
2022-08-22T08:38:48.522Z,21.20
2022-08-22T08:41:34.410Z,21.24
2022-08-22T08:44:30.745Z,21.24
2022-08-22T08:47:31.383Z,21.26
2022-08-22T08:50:50.138Z,21.27
2022-08-22T08:53:49.650Z,21.26
2022-08-22T08:57:00.625Z,21.30
2022-08-22T08:59:45.490Z,21.30
2022-08-22T09:02:38.650Z,21.32
2022-08-22T09:05:20.034Z,21.41
2022-08-22T09:07:55.376Z,21.46
2022-08-22T09:10:57.391Z,21.48
2022-08-22T09:13:43.088Z,21.48
2022-08-22T09:16:12.634Z,21.44
2022-08-22T09:18:59.650Z,21.44
2022-08-22T09:21:37.041Z,21.51
2022-08-22T09:24:41.285Z,21.55
2022-08-22T09:27:36.776Z,21.61
2022-08-22T09:30:27.529Z,21.66
2022-08-22T09:33:12.035Z,21.69
2022-08-22T09:36:05.359Z,21.75
2022-08-22T09:38:34.801Z,21.85
2022-08-22T09:41:18.028Z,21.91
2022-08-22T09:43:59.107Z,21.96
2022-08-22T09:46:36.723Z,22.01
2022-08-22T09:49:45.015Z,22.04
2022-08-22T09:52:42.986Z,22.08
2022-08-22T09:55:36.556Z,22.13
2022-08-22T09:58:41.551Z,22.14
2022-08-22T10:01:33.500Z,22.15
2022-08-22T10:04:04.464Z,22.16
2022-08-22T10:06:46.358Z,22.16
2022-08-22T10:09:31.176Z,22.19
2022-08-22T10:12:12.387Z,22.27
2022-08-22T10:14:56.349Z,22.28
2022-08-22T10:17:41.151Z,22.28
2022-08-22T10:20:18.351Z,22.28
2022-08-22T10:23:01.031Z,22.26
2022-08-22T10:25:48.541Z,22.29
2022-08-22T10:28:20.101Z,22.31
2022-08-22T10:30:52.361Z,22.28
2022-08-22T10:34:04.874Z,22.31
2022-08-22T10:36:54.395Z,22.35
2022-08-22T10:39:56.762Z,22.36
2022-08-22T10:42:51.829Z,22.44
2022-08-22T10:45:35.633Z,22.56
2022-08-22T10:48:10.049Z,22.59
2022-08-22T10:50:44.924Z,22.78
2022-08-22T10:53:34.972Z,23.00
2022-08-22T10:56:03.285Z,23.09
2022-08-22T10:58:37.025Z,23.15
2022-08-22T11:01:37.585Z,23.35
2022-08-22T11:04:17.577Z,23.50
2022-08-22T11:06:55.612Z,23.58
2022-08-22T11:09:42.440Z,23.74
2022-08-22T11:12:44.719Z,23.87
2022-08-22T11:15:16.556Z,23.98
2022-08-22T11:18:25.454Z,24.19
2022-08-22T11:21:05.161Z,24.42
2022-08-22T11:23:41.911Z,24.64
2022-08-22T11:26:46.575Z,24.86
2022-08-22T11:29:36.388Z,25.12
2022-08-22T11:32:15.616Z,25.35
2022-08-22T11:34:55.478Z,25.52
2022-08-22T11:37:45.244Z,25.66
2022-08-22T11:40:44.246Z,25.75
2022-08-22T11:49:14.002Z,26.19
2022-08-22T11:51:44.623Z,26.26
2022-08-22T11:54:21.956Z,26.31
2022-08-22T11:57:17.835Z,26.42
2022-08-22T11:59:45.907Z,26.51
2022-08-22T12:02:27.076Z,26.56
2022-08-22T12:05:03.964Z,26.62
2022-08-22T12:07:38.282Z,26.72
2022-08-22T12:10:13.438Z,26.80
2022-08-22T12:12:58.528Z,26.83
2022-08-22T12:15:37.416Z,26.89
2022-08-22T12:18:12.735Z,26.92
2022-08-22T12:21:09.114Z,27.00
2022-08-22T12:24:05.893Z,27.10
2022-08-22T12:26:42.454Z,27.15
2022-08-22T12:29:40.103Z,27.01
2022-08-22T12:32:49.383Z,26.93
2022-08-22T12:35:29.813Z,26.88
2022-08-22T12:38:26.681Z,26.75
2022-08-22T12:41:34.785Z,26.64
2022-08-22T12:44:17.294Z,26.59
2022-08-22T12:47:04.493Z,26.53
2022-08-22T12:50:01.202Z,26.48
2022-08-22T12:52:44.284Z,26.46
2022-08-22T12:55:25.302Z,26.52
2022-08-22T12:57:59.617Z,26.59
2022-08-22T13:00:40.353Z,26.64
2022-08-22T13:03:53.927Z,26.69
2022-08-22T13:06:35.649Z,26.70
2022-08-22T13:09:18.843Z,26.68
2022-08-22T13:11:51.551Z,26.66
2022-08-22T13:14:26.584Z,26.64
2022-08-22T13:16:59.822Z,26.62
2022-08-22T13:19:33.107Z,26.61
2022-08-22T13:22:03.981Z,26.57
2022-08-22T13:24:52.369Z,26.55
2022-08-22T13:27:32.892Z,26.52
2022-08-22T13:30:12.526Z,26.49
2022-08-22T13:32:45.728Z,26.46
2022-08-22T13:35:41.448Z,26.48
2022-08-22T13:38:35.016Z,26.54
2022-08-22T13:41:08.105Z,26.59
2022-08-22T13:44:15.380Z,26.63
2022-08-22T13:47:13.006Z,26.72
2022-08-22T13:49:51.885Z,26.77
2022-08-22T13:52:38.160Z,26.73
2022-08-22T13:55:23.994Z,26.69
2022-08-22T13:58:04.597Z,26.64
2022-08-22T14:01:14.031Z,26.67
2022-08-22T14:03:48.616Z,26.71
2022-08-22T14:06:32.811Z,26.69
2022-08-22T14:09:38.712Z,26.62
2022-08-22T14:12:12.647Z,26.56
2022-08-22T14:14:46.167Z,26.53
2022-08-22T14:17:31.702Z,26.53
2022-08-22T14:20:11.206Z,26.52
2022-08-22T14:22:43.102Z,26.51
2022-08-22T14:25:23.664Z,26.49
2022-08-22T14:28:01.224Z,26.46
2022-08-22T14:30:54.387Z,26.45
2022-08-22T14:33:39.718Z,26.49
2022-08-22T14:36:43.708Z,26.54
2022-08-22T14:39:28.063Z,26.56
2022-08-22T14:42:10.855Z,26.61
2022-08-22T14:45:06.376Z,26.69
2022-08-22T14:47:55.511Z,26.79
2022-08-22T14:50:49.744Z,26.84
2022-08-22T14:53:22.480Z,26.88
2022-08-22T14:56:17.998Z,26.89
2022-08-22T14:59:00.082Z,26.86
2022-08-22T15:01:32.919Z,26.83
2022-08-22T15:04:09.597Z,26.80
2022-08-22T15:06:51.291Z,26.75
2022-08-22T15:09:25.245Z,26.70
2022-08-22T15:11:53.418Z,26.66
2022-08-22T15:14:25.986Z,26.62
2022-08-22T15:16:56.198Z,26.59
2022-08-22T15:19:27.455Z,26.56
2022-08-22T15:22:15.146Z,26.53
2022-08-22T15:25:02.524Z,26.49
2022-08-22T15:27:34.740Z,26.46
2022-08-22T15:30:20.822Z,26.44
2022-08-22T15:32:49.930Z,26.41
2022-08-22T15:35:31.127Z,26.40
2022-08-22T15:38:05.529Z,26.38
2022-08-22T15:40:34.833Z,26.36
2022-08-22T15:43:26.765Z,26.34
2022-08-22T15:46:31.082Z,26.33
2022-08-22T15:49:22.807Z,26.32
2022-08-22T15:52:00.821Z,26.29
2022-08-22T15:54:51.282Z,26.27
2022-08-22T15:57:28.291Z,26.25
2022-08-22T15:59:58.204Z,26.23
2022-08-22T16:02:56.547Z,26.22
2022-08-22T16:05:40.431Z,26.18
2022-08-22T16:08:33.179Z,26.15
2022-08-22T16:11:04.323Z,26.12
2022-08-22T16:13:42.121Z,26.07
2022-08-22T16:16:12.241Z,26.04
2022-08-22T16:18:40.518Z,25.99
2022-08-22T16:21:11.466Z,25.97
2022-08-22T16:23:51.611Z,25.95
2022-08-22T16:26:31.766Z,25.92
2022-08-22T16:29:00.251Z,25.87
2022-08-22T16:31:28.422Z,25.79
2022-08-22T16:34:16.460Z,25.69
2022-08-22T16:37:08.811Z,25.63
2022-08-22T16:39:46.249Z,25.55
2022-08-22T16:42:14.578Z,25.49
2022-08-22T16:44:54.520Z,25.44
2022-08-22T16:47:52.728Z,25.40
2022-08-22T16:50:38.718Z,25.39
2022-08-22T16:53:06.867Z,25.42
2022-08-22T16:55:39.549Z,25.42
2022-08-22T16:58:27.298Z,25.41
2022-08-22T17:01:30.342Z,25.38
2022-08-22T17:04:17.383Z,25.34
2022-08-22T17:07:04.399Z,25.32
2022-08-22T17:09:47.730Z,25.29
2022-08-22T17:12:15.800Z,25.30
2022-08-22T17:15:06.196Z,25.28
2022-08-22T17:17:46.453Z,25.25
2022-08-22T17:20:37.462Z,25.23
2022-08-22T17:23:31.646Z,25.16
2022-08-22T17:26:20.507Z,25.15
2022-08-22T17:28:57.485Z,25.18
2022-08-22T17:31:50.338Z,25.16
2022-08-22T17:34:38.072Z,25.12
2022-08-22T17:37:29.080Z,25.11
2022-08-22T17:40:16.248Z,25.06
2022-08-22T17:42:57.014Z,25.02
2022-08-22T17:45:29.442Z,24.97
2022-08-22T17:48:15.641Z,24.97
2022-08-22T17:50:54.359Z,24.93
2022-08-22T17:53:42.298Z,24.83
2022-08-22T17:56:44.503Z,24.72
2022-08-22T17:59:20.305Z,24.64
2022-08-22T18:01:51.772Z,24.62
2022-08-22T18:04:24.454Z,24.59
2022-08-22T18:07:16.900Z,24.54
2022-08-22T18:09:55.003Z,24.44
2022-08-22T18:12:54.742Z,24.35
2022-08-22T18:15:32.310Z,24.35
2022-08-22T18:18:13.233Z,24.33
2022-08-22T18:20:51.725Z,24.32
2022-08-22T18:23:35.635Z,24.33
2022-08-22T18:26:42.524Z,24.35
2022-08-22T18:29:18.890Z,24.38
2022-08-22T18:32:33.145Z,24.42
2022-08-22T18:35:10.330Z,24.42
2022-08-22T18:38:19.438Z,24.40
2022-08-22T18:41:12.727Z,24.37
2022-08-22T18:43:48.479Z,24.35
2022-08-22T18:46:26.483Z,24.36
2022-08-22T18:49:14.597Z,24.37
2022-08-22T18:51:43.694Z,24.34
2022-08-22T18:54:11.793Z,24.30
2022-08-22T18:56:39.864Z,24.29
2022-08-22T18:59:56.886Z,24.26
2022-08-22T19:02:27.924Z,24.30
2022-08-22T19:05:01.730Z,24.31
2022-08-22T19:07:52.896Z,24.30
2022-08-22T19:10:48.924Z,24.28
2022-08-22T19:13:49.507Z,24.27
2022-08-22T19:16:32.790Z,24.23
2022-08-22T19:19:17.566Z,24.21
2022-08-22T19:22:19.768Z,24.19
2022-08-22T19:25:10.572Z,24.14
2022-08-22T19:28:10.901Z,24.10
2022-08-22T19:30:49.519Z,24.06
2022-08-22T19:33:19.947Z,24.05
2022-08-22T19:35:56.721Z,24.06
2022-08-22T19:38:57.256Z,24.03
2022-08-22T19:41:45.522Z,23.99
2022-08-22T19:44:19.306Z,23.96
2022-08-22T19:46:59.357Z,23.95
2022-08-22T19:49:32.141Z,23.96
2022-08-22T19:52:12.202Z,23.93
2022-08-22T19:55:05.556Z,23.92
2022-08-22T19:58:05.269Z,23.90
2022-08-22T20:00:53.693Z,23.90
2022-08-22T20:03:59.578Z,23.92
2022-08-22T20:06:44.982Z,23.91
2022-08-22T20:09:38.822Z,23.90
2022-08-22T20:12:42.790Z,23.90
2022-08-22T20:15:23.716Z,23.91
2022-08-22T20:20:58.497Z,23.90
2022-08-22T20:23:32.480Z,23.87
2022-08-22T20:26:01.403Z,23.85
2022-08-22T20:28:47.567Z,23.84
2022-08-22T20:31:23.724Z,23.83
2022-08-22T20:34:16.114Z,23.77
2022-08-22T20:36:52.735Z,23.65
2022-08-22T20:39:39.680Z,23.55
2022-08-22T20:42:13.559Z,23.47
2022-08-22T20:44:53.775Z,23.42
2022-08-22T20:47:34.135Z,23.39
2022-08-22T20:50:12.260Z,23.33
2022-08-22T20:52:42.947Z,23.29
2022-08-22T20:55:31.619Z,23.24
2022-08-22T20:58:04.250Z,23.23
2022-08-22T21:00:46.814Z,23.22
2022-08-22T21:03:17.901Z,23.18
2022-08-22T21:05:46.588Z,23.12
2022-08-22T21:08:19.883Z,23.09
2022-08-22T21:11:21.440Z,23.07
2022-08-22T21:13:50.892Z,23.06
2022-08-22T21:16:31.649Z,22.99
2022-08-22T21:19:01.935Z,22.92
2022-08-22T21:21:33.693Z,22.85
2022-08-22T21:24:06.011Z,22.77
2022-08-22T21:26:46.322Z,22.74
2022-08-22T21:29:14.414Z,22.68
2022-08-22T21:31:51.681Z,22.60
2022-08-22T21:34:25.078Z,22.53
2022-08-22T21:36:58.110Z,22.47
2022-08-22T21:39:36.275Z,22.44
2022-08-22T21:42:04.346Z,22.37
2022-08-22T21:44:35.591Z,22.36
2022-08-22T21:47:32.437Z,22.36
2022-08-22T21:50:12.814Z,22.35
2022-08-22T21:52:44.895Z,22.22
2022-08-22T21:55:24.211Z,22.17
2022-08-22T21:58:36.972Z,22.16
2022-08-22T22:01:28.179Z,22.12
2022-08-22T22:03:59.294Z,22.16
2022-08-22T22:06:27.919Z,22.18
2022-08-22T22:08:56.101Z,22.17
2022-08-22T22:11:24.150Z,22.15
2022-08-22T22:13:52.482Z,22.17
2022-08-22T22:16:26.108Z,22.21
2022-08-22T22:18:55.001Z,22.25
2022-08-22T22:21:23.249Z,22.24
2022-08-22T22:23:51.424Z,22.17
2022-08-22T22:26:21.247Z,22.13
2022-08-22T22:28:50.549Z,22.13
2022-08-22T22:31:18.963Z,22.13
2022-08-22T22:33:47.138Z,22.04
2022-08-22T22:36:22.684Z,22.00
2022-08-22T22:38:52.912Z,22.00
2022-08-22T22:41:25.786Z,22.00
2022-08-22T22:43:55.152Z,22.02
2022-08-22T22:46:24.398Z,22.00
2022-08-22T22:48:52.975Z,21.94
2022-08-22T22:51:21.407Z,21.91
2022-08-22T22:53:49.987Z,21.88
2022-08-22T22:56:22.494Z,21.86
2022-08-22T22:59:00.704Z,21.75
2022-08-22T23:02:07.661Z,21.63
2022-08-22T23:04:38.935Z,21.57
2022-08-22T23:07:09.129Z,21.53
2022-08-22T23:09:44.581Z,21.50
2022-08-22T23:12:14.762Z,21.47
2022-08-22T23:14:43.786Z,21.48
2022-08-22T23:17:12.677Z,21.49
2022-08-22T23:19:41.159Z,21.48
2022-08-22T23:22:11.073Z,21.49
2022-08-22T23:24:40.505Z,21.45
2022-08-22T23:27:10.493Z,21.38
2022-08-22T23:29:41.329Z,21.32
2022-08-22T23:32:11.187Z,21.36
2022-08-22T23:34:48.951Z,21.43
2022-08-22T23:37:21.519Z,21.48
2022-08-22T23:39:50.291Z,21.52
2022-08-22T23:42:19.201Z,21.55
2022-08-22T23:44:48.908Z,21.59
2022-08-22T23:47:18.515Z,21.61
2022-08-22T23:49:46.895Z,21.60
2022-08-22T23:52:15.017Z,21.54
2022-08-22T23:54:43.243Z,21.49
2022-08-22T23:57:12.056Z,21.46
2022-08-22T23:59:48.491Z,21.49
